Time;durP1;ratioP1;P1;durP2;ratioP2;P2;SDS_P1;SDS_P2;PMS_P1;PMS_P2;Temp;Humidity;BMP_temperature;BMP_pressure;BME280_temperature;BME280_humidity;BME280_pressure;Samples;Min_cycle;Max_cycle;Signal;HPM_P1;HPM_P2
2021/12/20 00:00:17;;;;;;;8.48;1.60;;;;;;;17.79;61.72;102983.38;4774963;29;20034;-76
2021/12/20 00:02:44;;;;;;;4.70;1.83;;;;;;;17.77;61.92;102982.44;4790107;29;20407;-76
2021/12/20 00:05:10;;;;;;;5.85;1.73;;;;;;;17.77;61.58;102979.84;4790303;29;20046;-77
2021/12/20 00:07:36;;;;;;;4.13;1.42;;;;;;;17.78;62.06;102984.22;4789927;29;20030;-76
2021/12/20 00:10:03;;;;;;;6.32;1.30;;;;;;;17.78;61.91;102989.44;4806128;29;20509;-79
2021/12/20 00:12:29;;;;;;;6.82;1.65;;;;;;;17.76;61.83;102986.78;4806341;29;20090;-76
2021/12/20 00:14:54;;;;;;;4.45;1.50;;;;;;;17.77;61.65;102987.66;4777286;29;20031;-76
2021/12/20 00:17:19;;;;;;;9.23;1.70;;;;;;;17.77;61.83;102990.28;4777595;29;20035;-76
2021/12/20 00:19:45;;;;;;;4.90;1.50;;;;;;;17.75;61.70;102985.03;4791015;29;20559;-76
2021/12/20 00:22:10;;;;;;;4.13;1.52;;;;;;;17.77;62.05;102992.88;4775549;29;20034;-76
2021/12/20 00:24:35;;;;;;;5.75;1.52;;;;;;;17.76;61.79;102989.41;4760398;29;20099;-76
2021/12/20 00:27:05;;;;;;;5.80;1.35;;;;;;;17.76;61.66;102975.50;4789855;29;20466;-76
2021/12/20 00:29:30;;;;;;;5.13;1.63;;;;;;;17.75;61.59;102977.22;4775285;29;20035;-77
2021/12/20 00:31:55;;;;;;;6.38;1.80;;;;;;;17.75;61.62;102977.22;4774861;29;20066;-77
2021/12/20 00:34:21;;;;;;;5.13;1.80;;;;;;;17.72;61.83;102969.31;4789710;29;20042;-76
2021/12/20 00:36:56;;;;;;;9.35;2.00;;;;;;;17.74;61.42;102969.38;4789581;29;20070;-76
2021/12/20 00:42:05;;;;;;;3.70;1.40;;;;;;;17.73;61.21;102968.50;4806147;29;20049;-77
2021/12/20 00:44:31;;;;;;;4.93;1.55;;;;;;;17.73;61.21;102981.53;4789610;29;20484;-77
2021/12/20 00:46:56;;;;;;;6.97;1.70;;;;;;;17.73;61.52;102968.50;4789730;29;20034;-76
2021/12/20 00:49:22;;;;;;;6.43;1.50;;;;;;;17.73;61.17;102965.91;4789702;29;20043;-77
2021/12/20 00:51:47;;;;;;;4.55;1.50;;;;;;;17.73;61.31;102971.09;4789809;29;20450;-76
2021/12/20 00:54:12;;;;;;;5.43;1.90;;;;;;;17.72;61.37;102969.31;4805725;29;20062;-76
2021/12/20 00:56:38;;;;;;;4.53;1.70;;;;;;;17.72;61.17;102961.53;4789820;29;20125;-77
2021/12/20 00:59:03;;;;;;;5.13;1.80;;;;;;;17.72;60.92;102958.91;4774853;29;20039;-77
2021/12/20 01:01:28;;;;;;;4.45;1.50;;;;;;;17.72;60.99;102964.13;4805814;29;20038;-76
2021/12/20 01:03:54;;;;;;;6.30;1.63;;;;;;;17.72;61.19;102958.91;4789511;29;20042;-76
2021/12/20 01:06:19;;;;;;;5.13;1.40;;;;;;;17.72;61.07;102961.53;4789393;29;20035;-76
2021/12/20 01:08:47;;;;;;;5.15;1.67;;;;;;;17.73;61.02;102962.41;4774378;29;20070;-77
2021/12/20 01:11:19;;;;;;;4.45;1.55;;;;;;;17.73;60.82;102963.28;4807473;29;20035;-76
2021/12/20 01:13:44;;;;;;;4.28;1.60;;;;;;;17.72;61.04;102956.31;4779804;29;20027;-76
2021/12/20 01:16:12;;;;;;;7.22;1.67;;;;;;;17.72;60.96;102956.31;4808921;29;20031;-76
2021/12/20 01:18:39;;;;;;;3.95;1.40;;;;;;;17.72;60.71;102955.44;4793575;29;20122;-77
2021/12/20 01:21:04;;;;;;;6.43;1.73;;;;;;;17.69;60.60;102957.13;4808840;29;20394;-76
2021/12/20 01:23:30;;;;;;;7.40;2.00;;;;;;;17.71;60.75;102951.97;4792637;29;20027;-76
2021/12/20 01:25:55;;;;;;;4.40;1.40;;;;;;;17.71;60.77;102948.47;4792603;29;20112;-76
2021/12/20 01:28:20;;;;;;;5.57;1.90;;;;;;;17.70;60.70;102952.78;4792356;29;20133;-77
2021/12/20 01:30:46;;;;;;;6.80;1.88;;;;;;;17.69;60.78;102949.31;4777942;29;20035;-76
2021/12/20 01:33:12;;;;;;;4.75;1.40;;;;;;;17.70;60.60;102950.19;4792716;29;20046;-76
2021/12/20 01:35:39;;;;;;;7.07;1.73;;;;;;;17.69;60.45;102954.53;4792606;29;20027;-76
2021/12/20 01:38:05;;;;;;;4.95;1.38;;;;;;;17.69;60.73;102949.31;4808898;29;20063;-76
2021/12/20 01:40:31;;;;;;;5.68;1.92;;;;;;;17.68;60.47;102947.56;4808617;29;20042;-77
2021/12/20 01:42:57;;;;;;;8.02;1.70;;;;;;;17.68;60.62;102950.16;4792532;29;20058;-77
2021/12/20 01:45:26;;;;;;;8.80;1.90;;;;;;;17.69;60.39;102953.66;4792161;29;20066;-76
2021/12/20 01:48:02;;;;;;;5.40;1.70;;;;;;;17.69;60.34;102951.03;4792067;29;20058;-77
2021/12/20 01:53:12;;;;;;;6.10;1.98;;;;;;;17.68;60.37;102959.69;4795022;29;20027;-76
2021/12/20 01:55:38;;;;;;;5.07;1.60;;;;;;;17.68;60.18;102954.47;4792365;29;20031;-76
2021/12/20 01:58:04;;;;;;;5.60;1.70;;;;;;;17.67;60.21;102948.41;4776971;29;20041;-76
2021/12/20 02:00:31;;;;;;;6.47;1.70;;;;;;;17.68;60.20;102947.56;4808135;29;20035;-76
2021/12/20 02:03:00;;;;;;;4.47;1.60;;;;;;;17.67;60.28;102944.91;4792275;29;20033;-77
2021/12/20 02:08:17;;;;;;;4.60;1.65;;;;;;;17.67;60.21;102945.78;4808236;29;20030;-76
2021/12/20 02:10:46;;;;;;;6.18;1.92;;;;;;;17.67;60.28;102947.53;4791544;29;20074;-76
2021/12/20 02:13:14;;;;;;;4.18;1.70;;;;;;;17.66;60.05;102948.38;4776707;29;20402;-77
2021/12/20 02:15:39;;;;;;;5.22;1.92;;;;;;;17.65;60.07;102944.88;4776932;29;20058;-77
2021/12/20 02:18:05;;;;;;;6.03;1.83;;;;;;;17.67;60.01;102939.72;4776768;29;20435;-76
2021/12/20 02:20:33;;;;;;;4.68;1.83;;;;;;;17.65;60.09;102939.66;4791986;29;20039;-77
2021/12/20 02:23:00;;;;;;;4.53;1.75;;;;;;;17.65;60.05;102944.88;4807718;29;20023;-77
2021/12/20 02:25:28;;;;;;;5.72;1.63;;;;;;;17.65;60.09;102950.06;4791468;29;20027;-76
2021/12/20 02:27:54;;;;;;;4.32;1.60;;;;;;;17.65;59.96;102949.22;4791652;29;20137;-77
2021/12/20 02:38:27;;;;;;;5.53;1.60;;;;;;;17.65;59.87;102938.78;4817664;29;20045;-79
2021/12/20 02:41:05;;;;;;;4.85;1.48;;;;;;;17.65;59.69;102942.28;4799449;29;20060;-77
2021/12/20 02:43:35;;;;;;;5.90;1.75;;;;;;;17.64;59.54;102937.91;4811153;29;20026;-77
2021/12/20 02:46:03;;;;;;;5.72;1.60;;;;;;;17.64;59.58;102940.53;4781252;29;20038;-78
2021/12/20 02:48:29;;;;;;;6.40;1.70;;;;;;;17.63;59.38;102935.28;4797759;29;20038;-77
2021/12/20 02:50:55;;;;;;;4.65;1.80;;;;;;;17.63;59.62;102927.47;4793785;29;20034;-77
2021/12/20 02:53:21;;;;;;;5.30;1.90;;;;;;;17.64;59.62;102931.84;4792745;29;20092;-77
2021/12/20 02:55:46;;;;;;;4.85;1.52;;;;;;;17.64;59.84;102926.63;4792062;29;20031;-77
2021/12/20 02:58:12;;;;;;;6.88;1.88;;;;;;;17.63;59.62;102919.66;4807781;29;20099;-77
2021/12/20 03:00:37;;;;;;;7.07;1.80;;;;;;;17.63;59.55;102930.06;4791233;29;20063;-76
2021/12/20 03:03:02;;;;;;;7.63;1.95;;;;;;;17.63;59.63;102924.84;4776180;29;20042;-77
2021/12/20 03:05:28;;;;;;;5.10;1.52;;;;;;;17.63;59.48;102925.72;4807560;29;20039;-76
2021/12/20 03:07:54;;;;;;;4.10;1.50;;;;;;;17.62;59.51;102920.50;4791077;29;20486;-76
2021/12/20 03:10:22;;;;;;;5.82;1.63;;;;;;;17.63;59.46;102923.13;4790948;29;20502;-76
2021/12/20 03:12:49;;;;;;;5.70;1.88;;;;;;;17.62;59.31;102923.97;4776211;29;20039;-77
2021/12/20 03:15:21;;;;;;;4.40;1.55;;;;;;;17.61;59.27;102919.59;4775913;29;20046;-77
2021/12/20 03:17:47;;;;;;;3.97;1.65;;;;;;;17.62;59.34;102926.59;4790623;29;20038;-77
2021/12/20 03:20:15;;;;;;;4.63;1.35;;;;;;;17.62;59.42;102921.38;4790512;29;20368;-77
2021/12/20 03:22:44;;;;;;;7.25;1.83;;;;;;;17.62;59.25;102925.72;4790963;29;20056;-76
2021/12/20 03:25:10;;;;;;;8.07;1.67;;;;;;;17.62;59.10;102925.72;4807038;29;20027;-76
2021/12/20 03:27:35;;;;;;;6.15;1.70;;;;;;;17.61;59.29;102922.22;4775656;29;20026;-76
2021/12/20 03:30:03;;;;;;;4.35;1.52;;;;;;;17.60;58.88;102920.47;4807071;29;20034;-77
2021/12/20 03:32:28;;;;;;;5.32;1.75;;;;;;;17.59;59.07;102923.03;4790835;29;20038;-77
2021/12/20 03:34:54;;;;;;;4.45;1.60;;;;;;;17.60;59.08;102923.06;4806307;29;20050;-77
2021/12/20 03:37:19;;;;;;;5.03;1.40;;;;;;;17.61;59.08;102926.53;4790816;29;20045;-76
2021/12/20 03:39:44;;;;;;;4.63;1.55;;;;;;;17.61;59.12;102929.16;4806651;29;20039;-76
2021/12/20 03:42:10;;;;;;;4.22;1.63;;;;;;;17.59;59.08;102925.63;4806389;29;20035;-77
2021/12/20 03:44:43;;;;;;;5.45;1.90;;;;;;;17.59;58.88;102929.09;4790131;29;20031;-76
2021/12/20 03:47:08;;;;;;;5.70;1.70;;;;;;;17.59;58.70;102930.84;4790135;29;20035;-77
2021/12/20 03:49:33;;;;;;;6.68;1.90;;;;;;;17.58;58.90;102924.75;4775356;29;20490;-77
2021/12/20 03:51:59;;;;;;;6.55;1.88;;;;;;;17.59;59.16;102925.63;4790304;29;20035;-77
2021/12/20 03:54:24;;;;;;;4.38;1.80;;;;;;;17.58;58.95;102921.28;4775960;29;20035;-76
2021/12/20 03:56:49;;;;;;;4.32;1.60;;;;;;;17.57;58.86;102928.22;4790433;29;20038;-77
2021/12/20 03:59:15;;;;;;;5.45;1.73;;;;;;;17.58;58.76;102918.66;4790077;29;20502;-77
2021/12/20 04:01:40;;;;;;;5.22;1.70;;;;;;;17.57;58.75;102916.91;4775450;29;20395;-76
2021/12/20 04:04:05;;;;;;;5.80;1.90;;;;;;;17.57;58.84;102914.28;4775117;29;20032;-76
2021/12/20 04:06:33;;;;;;;4.47;1.83;;;;;;;17.57;58.67;102916.91;4775826;29;20039;-77
2021/12/20 04:08:59;;;;;;;3.97;1.50;;;;;;;17.56;58.47;102918.63;4790919;29;20063;-76
2021/12/20 04:11:24;;;;;;;4.70;1.67;;;;;;;17.57;58.81;102923.00;4790162;29;20034;-76
2021/12/20 04:13:50;;;;;;;7.50;2.13;;;;;;;17.57;58.73;102924.69;4760709;29;20506;-76
2021/12/20 04:16:15;;;;;;;5.15;1.77;;;;;;;17.56;58.75;102920.34;4775284;29;20040;-76
2021/12/20 04:18:40;;;;;;;5.15;1.75;;;;;;;17.57;58.81;102915.19;4789881;29;20027;-76
2021/12/20 04:21:06;;;;;;;5.25;1.80;;;;;;;17.55;58.72;102916.88;4789993;29;20026;-76
2021/12/20 04:23:32;;;;;;;6.35;1.90;;;;;;;17.56;58.63;102923.84;4806144;29;20035;-77
2021/12/20 04:25:57;;;;;;;3.17;1.38;;;;;;;17.56;58.63;102920.34;4774743;29;20039;-77
2021/12/20 04:28:23;;;;;;;5.30;1.77;;;;;;;17.56;58.70;102918.63;4760173;29;20043;-76
2021/12/20 04:30:48;;;;;;;3.65;1.55;;;;;;;17.55;58.54;102923.78;4790071;29;20035;-76
2021/12/20 04:33:14;;;;;;;5.20;1.63;;;;;;;17.54;58.51;102920.31;4775108;29;20045;-76
2021/12/20 04:35:39;;;;;;;4.25;1.50;;;;;;;17.54;58.54;102925.53;4790108;29;20034;-76
2021/12/20 04:38:07;;;;;;;5.63;1.73;;;;;;;17.54;58.72;102927.25;4760221;29;20090;-76
2021/12/20 04:40:33;;;;;;;8.00;1.70;;;;;;;17.54;58.58;102922.03;4775738;29;20039;-76
2021/12/20 04:42:59;;;;;;;5.32;1.85;;;;;;;17.53;58.28;102915.97;4790046;29;20039;-76
2021/12/20 04:45:27;;;;;;;4.28;1.75;;;;;;;17.53;58.21;102910.75;4791819;29;20042;-76
2021/12/20 04:47:53;;;;;;;3.72;1.50;;;;;;;17.54;58.33;102914.22;4793287;29;20390;-76
2021/12/20 04:50:19;;;;;;;5.75;1.70;;;;;;;17.53;58.22;102912.47;4778174;29;20035;-77
2021/12/20 04:52:44;;;;;;;4.38;1.35;;;;;;;17.53;58.15;102915.06;4793203;29;20042;-76
2021/12/20 04:55:11;;;;;;;4.28;1.30;;;;;;;17.52;58.26;102926.34;4778188;29;20038;-77
2021/12/20 04:57:38;;;;;;;5.45;1.77;;;;;;;17.53;58.17;102920.25;4793094;29;20118;-76
2021/12/20 05:00:08;;;;;;;4.38;1.70;;;;;;;17.53;58.38;102922.88;4792862;29;20118;-76
2021/12/20 05:02:33;;;;;;;5.57;1.67;;;;;;;17.53;58.38;102925.47;4792851;29;20085;-76
2021/12/20 05:04:59;;;;;;;4.63;1.60;;;;;;;17.52;58.29;102924.59;4779200;29;20067;-79
2021/12/20 05:07:26;;;;;;;4.55;1.70;;;;;;;17.52;58.26;102919.41;4811614;29;20090;-77
2021/12/20 05:09:57;;;;;;;8.85;1.83;;;;;;;17.53;58.21;102925.47;4780183;29;20051;-76
2021/12/20 05:12:23;;;;;;;7.05;1.92;;;;;;;17.52;58.18;102928.94;4793230;29;20082;-76
2021/12/20 05:14:48;;;;;;;5.00;1.83;;;;;;;17.51;57.99;102920.25;4793577;29;20019;-77
2021/12/20 05:17:14;;;;;;;4.90;1.77;;;;;;;17.52;58.13;102921.13;4810968;29;20398;-76
2021/12/20 05:19:42;;;;;;;5.30;1.65;;;;;;;17.52;57.77;102921.13;4811464;29;20050;-76
2021/12/20 05:22:07;;;;;;;4.88;1.63;;;;;;;17.52;58.00;102921.13;4793164;29;20176;-76
2021/12/20 05:24:33;;;;;;;5.18;1.50;;;;;;;17.52;58.07;102915.91;4779026;29;20114;-76
2021/12/20 05:26:58;;;;;;;4.50;1.50;;;;;;;17.52;58.08;102926.34;4792940;29;20398;-77
2021/12/20 05:29:24;;;;;;;4.25;1.60;;;;;;;17.51;58.24;102924.56;4778363;29;20098;-77
2021/12/20 05:31:51;;;;;;;3.90;1.50;;;;;;;17.50;57.91;102930.63;4778599;29;20031;-77
2021/12/20 05:34:22;;;;;;;4.10;1.60;;;;;;;17.51;57.83;102919.34;4794906;29;20031;-79
2021/12/20 05:36:47;;;;;;;5.75;1.90;;;;;;;17.51;58.11;102924.56;4810203;29;20042;-77
2021/12/20 05:39:13;;;;;;;5.65;1.83;;;;;;;17.51;57.74;102929.75;4809160;29;20031;-77
2021/12/20 05:41:39;;;;;;;5.45;1.80;;;;;;;17.51;57.88;102921.94;4792768;29;20030;-77
2021/12/20 05:44:04;;;;;;;4.60;1.50;;;;;;;17.50;57.79;102931.50;4792808;29;20069;-77
2021/12/20 05:46:30;;;;;;;3.50;1.42;;;;;;;17.52;57.55;102932.41;4777586;29;20068;-77
2021/12/20 05:48:55;;;;;;;5.90;1.55;;;;;;;17.52;57.63;102932.41;4777401;29;20484;-77
2021/12/20 05:51:20;;;;;;;3.80;1.50;;;;;;;17.53;57.86;102930.69;4777247;29;20031;-77
2021/12/20 05:53:46;;;;;;;3.55;1.23;;;;;;;17.52;57.62;102937.63;4777222;29;20494;-77
2021/12/20 05:56:11;;;;;;;3.95;1.40;;;;;;;17.51;57.99;102946.28;4761860;29;20027;-77
2021/12/20 05:58:37;;;;;;;4.07;1.55;;;;;;;17.51;57.45;102934.97;4792979;29;20031;-77
2021/12/20 06:01:03;;;;;;;4.22;1.60;;;;;;;17.51;57.59;102937.56;4792277;29;20031;-77
2021/12/20 06:03:28;;;;;;;3.15;1.35;;;;;;;17.50;57.52;102936.69;4808690;29;20038;-76
2021/12/20 06:05:54;;;;;;;4.63;1.50;;;;;;;17.50;57.47;102938.44;4792026;29;20078;-77
2021/12/20 06:08:19;;;;;;;4.00;1.48;;;;;;;17.50;57.64;102930.63;4777391;29;20060;-77
2021/12/20 06:10:45;;;;;;;4.05;1.48;;;;;;;17.51;57.84;102941.06;4808805;29;20055;-78
2021/12/20 06:13:10;;;;;;;4.53;1.60;;;;;;;17.53;57.84;102931.59;4777645;29;20031;-77
2021/12/20 06:15:35;;;;;;;3.80;1.50;;;;;;;17.54;57.61;102930.72;4777248;29;20031;-78
2021/12/20 06:18:01;;;;;;;5.35;1.70;;;;;;;17.54;57.49;102946.34;4764912;29;20153;-78
2021/12/20 06:20:26;;;;;;;5.18;1.40;;;;;;;17.54;57.61;102940.25;4782729;29;20042;-77
2021/12/20 06:22:52;;;;;;;7.35;2.47;;;;;;;17.54;57.82;102938.53;4796974;29;20059;-78
2021/12/20 06:25:18;;;;;;;8.07;2.70;;;;;;;17.54;57.98;102938.53;4812687;29;20474;-77
2021/12/20 06:27:47;;;;;;;7.95;2.70;;;;;;;17.55;58.08;102939.41;4818912;29;20034;-79
2021/12/20 06:30:13;;;;;;;8.93;2.85;;;;;;;17.56;58.17;102943.78;4823175;29;20030;-79
2021/12/20 06:32:40;;;;;;;8.38;2.58;;;;;;;17.53;58.09;102948.91;4817780;29;20060;-81
2021/12/20 06:35:49;;;;;;;7.82;2.55;;;;;;;17.56;57.99;102956.81;4809091;29;20035;-81
2021/12/20 06:38:32;;;;;;;7.82;2.40;;;;;;;17.53;58.12;102935.88;4825931;29;20027;-82
2021/12/20 06:44:59;;;;;;;5.05;2.13;;;;;;;17.57;58.20;102950.75;4826037;29;20050;-83
2021/12/20 07:08:23;;;;;;;5.88;2.50;;;;;;;17.57;58.20;102967.25;4811801;29;20054;-85
2021/12/20 07:14:14;;;;;;;5.05;2.28;;;;;;;17.56;57.89;102964.63;4775374;30;20038;-84
2021/12/20 07:16:59;;;;;;;5.78;2.30;;;;;;;17.57;58.40;102967.25;4758740;30;20142;-85
2021/12/20 07:19:40;;;;;;;5.80;2.30;;;;;;;17.56;58.30;102959.41;4766237;30;20028;-83
2021/12/20 07:22:31;;;;;;;5.20;2.03;;;;;;;17.57;58.21;102964.66;4754872;30;20102;-82
2021/12/20 07:25:53;;;;;;;5.80;2.15;;;;;;;17.57;58.18;102967.25;4748792;30;20025;-83
2021/12/20 07:35:02;;;;;;;3.65;1.60;;;;;;;17.57;57.93;102971.56;4737415;30;20084;-83
2021/12/20 07:37:29;;;;;;;8.05;2.20;;;;;;;17.56;58.26;102962.88;4669324;30;20051;-81
2021/12/20 07:39:54;;;;;;;4.28;2.00;;;;;;;17.57;58.06;102966.34;4673672;30;20136;-81
2021/12/20 07:57:32;;;;;;;6.22;1.92;;;;;;;17.67;57.89;102968.34;4824318;29;20051;-83
2021/12/20 08:00:18;;;;;;;4.55;1.95;;;;;;;17.75;57.80;102977.22;4807817;29;20046;-83
2021/12/20 08:02:47;;;;;;;10.13;1.90;;;;;;;17.75;57.97;102964.22;4808629;29;20031;-85
2021/12/20 08:05:32;;;;;;;4.43;2.08;;;;;;;17.74;57.83;102965.03;4812461;29;20072;-85
2021/12/20 08:07:58;;;;;;;6.90;2.15;;;;;;;17.77;57.69;102967.72;4806220;29;20035;-84
2021/12/20 08:10:28;;;;;;;5.78;1.95;;;;;;;17.78;57.88;102971.22;4819661;29;20070;-85
2021/12/20 08:13:16;;;;;;;6.78;1.80;;;;;;;17.80;57.67;102977.34;4820705;29;20042;-84
2021/12/20 08:15:44;;;;;;;4.28;1.70;;;;;;;17.78;57.60;102972.09;4805159;29;20046;-83
2021/12/20 08:18:51;;;;;;;4.07;1.98;;;;;;;17.78;57.92;102977.28;4822550;29;20038;-83
2021/12/20 08:37:53;;;;;;;5.25;1.48;;;;;;;17.87;57.22;102987.94;4776158;30;20157;-83
2021/12/20 08:40:24;;;;;;;4.20;1.65;;;;;;;17.85;57.17;102981.81;4745783;30;20052;-83
2021/12/20 08:53:01;;;;;;;2.95;1.45;;;;;;;17.87;57.11;103005.31;4815233;29;20118;-83
2021/12/20 08:55:42;;;;;;;5.88;1.50;;;;;;;17.90;56.97;102997.59;4829365;29;20051;-83
2021/12/20 09:13:15;;;;;;;4.32;1.65;;;;;;;17.98;56.73;103009.03;4826459;29;20053;-88
2021/12/20 09:15:41;;;;;;;4.78;1.27;;;;;;;18.00;56.75;103009.09;4830377;29;20050;-88
2021/12/20 09:30:58;;;;;;;3.33;1.52;;;;;;;18.03;56.55;103011.75;4946377;24;20059;-86
2021/12/20 09:37:13;;;;;;;3.58;1.40;;;;;;;18.03;56.43;103009.16;4829977;29;20050;-86
2021/12/20 09:39:39;;;;;;;4.70;1.30;;;;;;;18.02;56.29;103016.09;4773031;30;20043;-86
2021/12/20 09:52:10;;;;;;;6.32;1.70;;;;;;;18.05;56.21;103021.41;4790804;30;20051;-85
2021/12/20 10:04:12;;;;;;;2.92;1.33;;;;;;;18.03;56.38;103015.25;5066683;24;20054;-90
2021/12/20 10:06:38;;;;;;;;;;;;;;;18.08;56.23;103029.28;4822923;29;20043;-86
2021/12/20 10:09:11;;;;;;;4.05;1.20;;;;;;;18.08;55.90;103020.56;4805106;29;20360;-85
2021/12/20 10:11:44;;;;;;;3.40;1.30;;;;;;;18.08;55.93;103016.25;4803472;29;20458;-85
2021/12/20 10:14:35;;;;;;;3.67;1.40;;;;;;;18.11;55.99;103019.75;4819547;29;20034;-84
2021/12/20 10:17:05;;;;;;;4.50;1.30;;;;;;;18.12;55.72;103024.13;4820703;29;20080;-84
2021/12/20 10:19:34;;;;;;;6.25;1.55;;;;;;;18.13;55.70;103026.75;4798643;29;20058;-83
2021/12/20 11:14:59;;;;;;;3.55;0.90;;;;;;;18.31;55.19;103013.25;4810449;29;20134;-78
2021/12/20 11:17:24;;;;;;;4.85;1.27;;;;;;;18.33;55.33;103018.50;4807081;29;20035;-79
2021/12/20 11:19:55;;;;;;;2.95;1.00;;;;;;;18.34;54.96;103018.56;4790868;29;20023;-78
2021/12/20 11:22:24;;;;;;;4.35;1.00;;;;;;;18.34;54.84;103012.47;4797476;29;20062;-83
2021/12/20 11:25:06;;;;;;;3.03;1.00;;;;;;;18.34;54.67;103022.91;4792018;29;20038;-80
2021/12/20 11:27:51;;;;;;;2.85;1.25;;;;;;;18.33;54.47;103016.78;4807749;29;20039;-82
2021/12/20 11:30:19;;;;;;;4.35;1.15;;;;;;;18.32;54.32;103011.56;4808526;29;20439;-81
2021/12/20 11:32:46;;;;;;;2.55;1.20;;;;;;;18.32;54.10;103006.34;4808359;29;20110;-81
2021/12/20 11:35:12;;;;;;;3.22;0.90;;;;;;;18.31;54.22;103010.66;4777191;29;20031;-77
2021/12/20 11:37:38;;;;;;;4.57;1.20;;;;;;;18.31;54.23;103015.88;4790547;29;20026;-76
2021/12/20 11:40:07;;;;;;;2.97;1.10;;;;;;;18.30;54.26;103004.56;4790560;29;20176;-76
2021/12/20 11:42:33;;;;;;;3.50;1.02;;;;;;;18.30;54.15;103004.56;4806756;29;20038;-76
2021/12/20 11:45:05;;;;;;;1.70;1.10;;;;;;;18.29;54.05;103009.72;4807047;29;20034;-76
2021/12/20 11:47:43;;;;;;;3.75;1.33;;;;;;;18.30;54.04;103011.50;4790511;29;20035;-78
2021/12/20 11:50:12;;;;;;;2.22;0.98;;;;;;;18.30;54.19;103009.78;4790460;29;20107;-77
2021/12/20 11:52:39;;;;;;;1.92;0.80;;;;;;;18.29;54.18;103008.03;4807652;29;20030;-81
2021/12/20 11:55:28;;;;;;;3.28;1.20;;;;;;;18.28;54.13;103010.59;4795404;29;20038;-83
2021/12/20 11:58:05;;;;;;;3.95;1.20;;;;;;;18.29;54.42;102997.59;4793338;29;20042;-84
2021/12/20 12:00:50;;;;;;;2.42;1.13;;;;;;;18.33;54.29;103000.28;4792229;29;20125;-84
2021/12/20 12:03:15;;;;;;;1.77;0.95;;;;;;;18.33;54.05;103001.13;4810638;29;20034;-84
2021/12/20 12:06:00;;;;;;;2.03;0.90;;;;;;;18.32;54.10;103007.22;4793082;29;20027;-85
2021/12/20 12:15:44;;;;;;;5.55;1.10;;;;;;;18.33;54.26;102997.66;4813895;29;20046;-83
2021/12/20 12:18:13;;;;;;;1.95;1.02;;;;;;;18.34;54.33;103002.03;4794012;29;20033;-86
2021/12/20 12:20:52;;;;;;;3.33;0.80;;;;;;;18.33;54.45;103003.75;4765268;29;20127;-86
2021/12/20 12:23:44;;;;;;;2.78;0.90;;;;;;;18.34;54.16;103002.03;4795565;29;20038;-85
2021/12/20 12:26:29;;;;;;;3.38;1.13;;;;;;;18.33;54.46;103008.97;4779551;29;20031;-85
2021/12/20 12:28:56;;;;;;;2.83;0.93;;;;;;;18.34;54.35;103004.66;4791896;29;20047;-86
2021/12/20 12:31:23;;;;;;;2.70;0.80;;;;;;;18.32;54.26;103007.22;4793275;29;20038;-86
2021/12/20 12:34:08;;;;;;;2.28;0.90;;;;;;;18.36;54.38;103008.19;4776585;29;20031;-82
2021/12/20 12:36:40;;;;;;;3.88;1.05;;;;;;;18.32;54.14;103001.13;4790786;29;20049;-87
2021/12/20 12:39:25;;;;;;;2.92;1.00;;;;;;;18.34;54.35;103004.66;4791298;29;20035;-82
2021/12/20 12:42:01;;;;;;;2.53;0.77;;;;;;;18.34;54.19;103000.31;4790522;29;20379;-83
2021/12/20 12:44:32;;;;;;;1.63;0.60;;;;;;;18.33;54.44;103003.75;4807334;29;20035;-83
2021/12/20 12:47:18;;;;;;;2.65;1.15;;;;;;;18.34;54.25;102995.09;4791034;29;20479;-83
2021/12/20 12:49:56;;;;;;;4.88;1.10;;;;;;;18.36;54.62;102989.94;4790984;29;20039;-84
2021/12/20 12:52:21;;;;;;;3.13;0.88;;;;;;;18.36;54.60;102989.94;4792668;29;20108;-84
2021/12/20 12:57:42;;;;;;;3.35;0.90;;;;;;;18.36;54.35;102982.97;4809263;29;20041;-84
2021/12/20 13:04:08;;;;;;;1.77;0.90;;;;;;;18.38;54.44;102985.59;4811466;29;20386;-86
2021/12/20 13:06:33;;;;;;;1.73;1.00;;;;;;;18.36;54.33;102980.38;4794281;29;20038;-85
2021/12/20 13:09:00;;;;;;;2.53;0.85;;;;;;;18.37;54.56;102976.03;4780579;29;20054;-85
2021/12/20 13:11:26;;;;;;;2.05;0.95;;;;;;;18.38;54.32;102973.47;4781610;29;20448;-86
2021/12/20 13:14:16;;;;;;;1.83;1.00;;;;;;;18.36;54.30;102967.34;4780370;29;20027;-86
2021/12/20 13:17:02;;;;;;;3.65;0.90;;;;;;;18.38;54.51;102973.47;4780246;29;20039;-84
2021/12/20 13:19:34;;;;;;;3.00;1.20;;;;;;;18.38;54.44;102969.97;4794643;29;20135;-85
2021/12/20 13:22:03;;;;;;;1.52;0.73;;;;;;;18.38;54.37;102969.97;4794086;29;20054;-85
2021/12/20 13:24:30;;;;;;;3.85;0.90;;;;;;;18.38;54.09;102970.84;4794950;29;20504;-84
2021/12/20 13:27:41;;;;;;;2.17;0.80;;;;;;;18.39;54.26;102970.00;4793414;29;20027;-85
2021/12/20 13:30:09;;;;;;;1.92;0.90;;;;;;;18.39;54.43;102971.72;4807849;29;20111;-86
2021/12/20 13:32:37;;;;;;;2.13;0.90;;;;;;;18.41;54.41;102972.66;4782018;29;20058;-89
2021/12/20 13:35:20;;;;;;;2.20;0.95;;;;;;;18.40;54.18;102970.88;4781689;29;20447;-87
2021/12/20 13:37:45;;;;;;;1.70;0.90;;;;;;;18.39;54.46;102970.00;4799418;29;20046;-88
2021/12/20 13:40:13;;;;;;;1.85;1.00;;;;;;;18.40;54.38;102969.16;4800957;29;20035;-87
2021/12/20 13:42:57;;;;;;;2.58;1.00;;;;;;;18.39;54.44;102962.19;4785457;29;20039;-89
2021/12/20 13:45:23;;;;;;;3.03;1.00;;;;;;;18.41;54.37;102964.81;4785916;29;20034;-87
2021/12/20 13:47:48;;;;;;;3.15;0.88;;;;;;;18.40;54.52;102966.56;4799148;29;20035;-86
2021/12/20 13:50:36;;;;;;;1.60;0.70;;;;;;;18.42;54.18;102971.78;4782893;29;20027;-85
2021/12/20 13:53:01;;;;;;;3.03;0.90;;;;;;;18.41;54.25;102968.31;4814275;29;20049;-85
2021/12/20 13:55:26;;;;;;;2.33;0.90;;;;;;;18.42;54.38;102970.09;4768858;29;20031;-88
2021/12/20 13:57:52;;;;;;;1.90;0.75;;;;;;;18.42;54.13;102966.56;4787938;29;20474;-86
2021/12/20 14:00:18;;;;;;;1.13;0.60;;;;;;;18.41;54.33;102968.31;4798554;29;20031;-84
2021/12/20 14:02:46;;;;;;;2.40;0.88;;;;;;;18.41;54.52;102970.03;4780263;29;20041;-84
2021/12/20 14:05:20;;;;;;;2.20;0.80;;;;;;;18.42;54.12;102974.38;4793888;29;20038;-86
2021/12/20 14:07:49;;;;;;;1.52;0.73;;;;;;;18.43;54.29;102973.56;4813938;29;20058;-88
2021/12/20 14:10:26;;;;;;;1.90;0.90;;;;;;;18.44;54.15;102977.91;4797060;29;20051;-86
2021/12/20 14:12:58;;;;;;;1.48;0.80;;;;;;;18.43;54.24;102974.44;4795427;29;20510;-84
2021/12/20 14:15:27;;;;;;;3.10;0.80;;;;;;;18.43;54.29;102973.56;4811352;29;20474;-87
2021/12/20 14:24:39;;;;;;;1.25;0.70;;;;;;;18.41;54.11;102976.13;4818029;29;20064;-85
2021/12/20 14:27:04;;;;;;;1.50;0.75;;;;;;;18.44;54.23;102967.47;4783833;29;20030;-84
2021/12/20 14:29:46;;;;;;;2.88;1.10;;;;;;;18.41;53.92;102960.47;4767791;29;20034;-84
2021/12/20 14:32:14;;;;;;;1.55;0.80;;;;;;;18.43;54.07;102965.75;4781179;29;20140;-85
2021/12/20 14:34:42;;;;;;;1.75;0.88;;;;;;;18.43;54.07;102963.13;4797247;29;20137;-84
2021/12/20 14:37:11;;;;;;;1.65;0.70;;;;;;;18.43;54.00;102960.53;4766267;29;20084;-84
2021/12/20 14:39:44;;;;;;;1.88;0.70;;;;;;;18.42;54.10;102962.25;4792237;29;20083;-83
2021/12/20 14:42:09;;;;;;;1.60;0.80;;;;;;;18.44;53.82;102964.88;4792443;29;20031;-84
2021/12/20 14:44:45;;;;;;;1.63;0.80;;;;;;;18.43;54.02;102969.22;4777521;29;20092;-84
2021/12/20 14:49:56;;;;;;;1.98;0.70;;;;;;;18.43;53.90;102964.00;4793766;29;20375;-85
2021/12/20 14:52:34;;;;;;;1.73;0.95;;;;;;;18.44;53.96;102964.88;4792771;29;20073;-84
2021/12/20 14:55:11;;;;;;;1.63;0.80;;;;;;;18.43;54.07;102964.00;4792822;29;20039;-86
2021/12/20 14:57:48;;;;;;;1.98;0.90;;;;;;;18.42;53.75;102959.66;4792433;29;20030;-86
2021/12/20 15:00:14;;;;;;;2.22;0.90;;;;;;;18.44;53.97;102959.66;4793006;29;20438;-85
2021/12/20 15:02:41;;;;;;;3.38;0.90;;;;;;;18.42;53.89;102959.66;4793608;29;20529;-85
2021/12/20 15:05:14;;;;;;;3.53;0.90;;;;;;;18.44;53.89;102962.28;4777688;29;20026;-84
2021/12/20 15:07:53;;;;;;;0.93;0.63;;;;;;;18.44;53.86;102967.47;4793174;29;20027;-84
2021/12/20 15:10:19;;;;;;;1.60;0.70;;;;;;;18.47;53.89;102959.75;4792929;29;20196;-83
2021/12/20 15:12:46;;;;;;;2.30;1.00;;;;;;;18.45;53.89;102961.44;4791390;29;20137;-84
2021/12/20 15:15:12;;;;;;;2.67;0.80;;;;;;;18.45;53.99;102956.22;4808306;29;20039;-85